createdAt,value
2022-08-14T00:03:17.561Z,1.30
2022-08-14T00:08:44.974Z,1.45
2022-08-14T00:13:30.974Z,1.32
2022-08-14T00:19:06.801Z,1.58
2022-08-14T00:23:42.764Z,1.38
2022-08-14T00:28:49.258Z,1.36
2022-08-14T00:33:59.842Z,1.59
2022-08-14T00:39:02.033Z,1.58
2022-08-14T00:44:08.376Z,1.64
2022-08-14T00:49:14.939Z,1.37
2022-08-14T00:54:22.208Z,1.88
2022-08-14T00:59:27.414Z,2.02
2022-08-14T01:04:51.840Z,2.03
2022-08-14T01:09:40.227Z,1.91
2022-08-14T01:14:46.916Z,2.18
2022-08-14T01:19:53.783Z,2.33
2022-08-14T01:24:59.307Z,2.54
2022-08-14T01:30:05.733Z,2.43
2022-08-14T01:35:19.081Z,2.59
2022-08-14T01:40:20.078Z,2.34
2022-08-14T01:45:25.573Z,2.26
2022-08-14T01:50:30.535Z,2.49
2022-08-14T01:55:37.431Z,2.30
2022-08-14T02:00:43.808Z,1.58
2022-08-14T02:05:50.780Z,2.00
2022-08-14T02:10:57.752Z,2.16
2022-08-14T02:16:22.015Z,2.18
2022-08-14T02:21:11.787Z,2.18
2022-08-14T02:26:24.520Z,1.96
2022-08-14T02:31:28.649Z,1.68
2022-08-14T02:37:04.654Z,2.24
2022-08-14T02:41:39.943Z,1.86
2022-08-14T02:46:44.243Z,1.65
2022-08-14T02:51:50.132Z,2.20
2022-08-14T02:57:15.698Z,1.79
2022-08-14T03:02:03.164Z,1.96
2022-08-14T03:07:10.587Z,1.97
2022-08-14T03:12:26.848Z,2.02
2022-08-14T03:17:23.301Z,1.78
2022-08-14T03:23:39.108Z,2.25
2022-08-14T03:28:45.075Z,2.21
2022-08-14T03:33:51.777Z,1.91
2022-08-14T03:39:13.384Z,1.62
2022-08-14T03:45:19.679Z,2.22
2022-08-14T03:49:12.693Z,1.77
2022-08-14T03:54:20.482Z,1.71
2022-08-14T03:59:21.558Z,1.68
2022-08-14T04:04:28.285Z,1.96
2022-08-14T04:09:34.921Z,1.87
2022-08-14T04:14:42.157Z,1.74
2022-08-14T04:19:48.566Z,2.03
2022-08-14T04:24:54.519Z,1.46
2022-08-14T04:30:01.328Z,1.69
2022-08-14T04:35:10.433Z,1.61
2022-08-14T04:40:13.510Z,1.67
2022-08-14T04:45:19.447Z,1.47
2022-08-14T04:50:31.311Z,1.42
2022-08-14T04:55:31.993Z,1.71
2022-08-14T05:00:38.616Z,1.92
2022-08-14T05:05:44.563Z,1.56
2022-08-14T05:10:51.273Z,1.51
2022-08-14T05:15:57.833Z,1.50
2022-08-14T05:21:59.470Z,1.60
2022-08-14T05:26:10.812Z,1.81
2022-08-14T05:31:07.141Z,1.88
2022-08-14T05:36:16.823Z,1.68
2022-08-14T05:41:19.956Z,1.92
2022-08-14T05:46:25.950Z,1.85
2022-08-14T05:51:32.731Z,1.74
2022-08-14T05:56:39.178Z,1.69
2022-08-14T06:01:45.923Z,2.10
2022-08-14T06:06:51.844Z,1.97
2022-08-14T06:11:58.112Z,1.46
2022-08-14T06:17:04.709Z,1.55
2022-08-14T06:22:11.473Z,2.56
2022-08-14T06:27:17.433Z,1.82
2022-08-14T06:32:37.306Z,1.93
2022-08-14T06:37:29.737Z,2.03
2022-08-14T06:42:35.915Z,2.24
2022-08-14T06:47:43.964Z,2.60
2022-08-14T06:52:50.360Z,1.92
2022-08-14T06:57:55.008Z,1.94
2022-08-14T07:03:01.719Z,1.96
2022-08-14T07:08:08.175Z,1.88
2022-08-14T07:13:14.404Z,1.88
2022-08-14T07:18:21.427Z,1.87
2022-08-14T07:23:31.146Z,1.59
2022-08-14T07:28:36.072Z,1.99
2022-08-14T07:33:45.578Z,1.90
2022-08-14T07:38:52.268Z,1.89
2022-08-14T07:43:56.041Z,1.94
2022-08-14T07:49:01.132Z,1.50
2022-08-14T07:54:10.994Z,1.86
2022-08-14T07:59:13.811Z,1.70
2022-08-14T08:04:24.526Z,1.58
2022-08-14T08:09:31.852Z,1.68
2022-08-14T08:14:34.347Z,1.80
2022-08-14T08:19:41.078Z,1.67
2022-08-14T08:24:50.519Z,1.97
2022-08-14T08:29:53.777Z,1.91
2022-08-14T08:35:00.154Z,2.34
2022-08-14T08:40:06.689Z,1.88
2022-08-14T08:45:13.575Z,2.47
2022-08-14T08:50:22.776Z,1.83
2022-08-14T08:55:26.551Z,1.99
2022-08-14T09:00:32.978Z,1.98
2022-08-14T09:05:39.657Z,1.84
2022-08-14T09:10:46.039Z,1.76
2022-08-14T09:15:52.854Z,1.26
2022-08-14T09:21:03.750Z,1.67
2022-08-14T09:26:01.720Z,1.51
2022-08-14T09:31:08.575Z,1.56
2022-08-14T09:36:11.790Z,1.38
2022-08-14T09:41:17.766Z,1.59
2022-08-14T09:46:25.717Z,1.75
2022-08-14T09:51:33.170Z,1.16
2022-08-14T09:56:40.210Z,1.46
2022-08-14T10:01:52.791Z,1.84
2022-08-14T10:06:54.043Z,1.69
2022-08-14T10:12:00.499Z,1.02
2022-08-14T10:17:08.396Z,1.62
2022-08-14T10:23:21.873Z,1.38
2022-08-14T10:27:20.429Z,1.21
2022-08-14T10:32:36.196Z,1.36
2022-08-14T10:37:33.366Z,1.70
2022-08-14T10:42:39.887Z,1.33
2022-08-14T10:48:09.414Z,1.55
2022-08-14T10:52:53.983Z,1.17
2022-08-14T10:58:00.674Z,1.61
2022-08-14T11:03:07.178Z,1.63
2022-08-14T11:08:14.300Z,1.99
2022-08-14T11:13:24.007Z,1.29
2022-08-14T11:18:32.386Z,1.41
2022-08-14T11:23:38.712Z,1.54
2022-08-14T11:28:46.962Z,1.61
2022-08-14T11:33:46.734Z,1.43
2022-08-14T11:38:53.801Z,1.42
2022-08-14T11:43:58.962Z,1.70
2022-08-14T11:49:06.413Z,1.46
2022-08-14T11:54:11.425Z,1.67
2022-08-14T11:59:18.362Z,1.63
2022-08-14T12:04:32.334Z,1.22
2022-08-14T12:09:32.567Z,1.38
2022-08-14T12:14:41.581Z,1.19
2022-08-14T12:19:45.373Z,1.25
2022-08-14T12:24:52.105Z,1.39
2022-08-14T12:29:58.904Z,1.46
2022-08-14T12:35:12.646Z,1.60
2022-08-14T12:40:15.865Z,1.52
2022-08-14T12:45:24.356Z,1.41
2022-08-14T12:50:24.787Z,1.13
2022-08-14T12:55:22.158Z,1.34
2022-08-14T13:00:30.595Z,1.18
2022-08-14T13:05:36.496Z,1.22
2022-08-14T13:10:47.300Z,1.28
2022-08-14T13:15:48.744Z,1.40
2022-08-14T13:20:59.691Z,1.36
2022-08-14T13:26:01.092Z,1.18
2022-08-14T13:31:11.234Z,1.43
2022-08-14T13:36:24.072Z,1.24
2022-08-14T13:41:22.870Z,1.19
2022-08-14T13:46:26.518Z,1.03
2022-08-14T13:51:34.194Z,1.24
2022-08-14T13:56:40.809Z,1.92
2022-08-14T14:01:51.830Z,1.43
2022-08-14T14:06:53.167Z,1.31
2022-08-14T14:12:02.435Z,1.25
2022-08-14T14:17:08.205Z,1.27
2022-08-14T14:22:35.949Z,1.28
2022-08-14T14:27:40.489Z,1.55
2022-08-14T14:32:31.179Z,1.29
2022-08-14T14:37:33.486Z,1.05
2022-08-14T14:42:39.915Z,1.22
2022-08-14T14:47:46.364Z,1.24
2022-08-14T14:52:53.520Z,0.97
2022-08-14T14:58:00.066Z,1.14
2022-08-14T15:03:06.964Z,1.20
2022-08-14T15:08:16.991Z,1.48
2022-08-14T15:13:19.788Z,1.26
2022-08-14T15:18:36.715Z,1.04
2022-08-14T15:23:43.635Z,1.00
2022-08-14T15:28:39.127Z,1.16
2022-08-14T15:34:33.332Z,1.07
2022-08-14T15:38:51.466Z,1.13
2022-08-14T15:43:58.255Z,1.32
2022-08-14T15:49:04.210Z,0.95
2022-08-14T15:54:11.263Z,1.15
2022-08-14T15:59:18.203Z,1.13
2022-08-14T16:04:24.079Z,1.36
2022-08-14T16:09:29.747Z,0.93
2022-08-14T16:14:36.148Z,0.67
2022-08-14T16:19:44.531Z,1.08
2022-08-14T16:25:02.472Z,0.94
2022-08-14T16:29:56.538Z,0.90
2022-08-14T16:35:03.427Z,0.80
2022-08-14T16:40:10.984Z,1.15
2022-08-14T16:45:16.691Z,0.69
2022-08-14T16:50:40.429Z,0.73
2022-08-14T16:55:30.340Z,0.89
2022-08-14T17:00:43.753Z,0.71
2022-08-14T17:05:43.313Z,0.94
2022-08-14T17:10:47.914Z,1.05
2022-08-14T17:15:54.722Z,0.67
2022-08-14T17:21:07.297Z,1.01
2022-08-14T17:26:07.830Z,1.13
2022-08-14T17:31:14.800Z,0.77
2022-08-14T17:36:22.382Z,0.96
2022-08-14T17:41:36.145Z,0.83
2022-08-14T17:46:34.175Z,0.82
2022-08-14T17:51:40.182Z,0.83
2022-08-14T17:56:46.835Z,1.11
2022-08-14T18:01:53.487Z,0.97
2022-08-14T18:07:08.760Z,1.06
2022-08-14T18:12:06.131Z,0.82
2022-08-14T18:17:12.514Z,0.89
2022-08-14T18:22:30.858Z,0.66
2022-08-14T18:27:24.978Z,0.79
2022-08-14T18:32:31.956Z,0.81
2022-08-14T18:37:38.671Z,0.81
2022-08-14T18:42:45.447Z,0.91
2022-08-14T18:48:14.583Z,1.06
2022-08-14T18:52:57.639Z,0.79
2022-08-14T18:58:07.742Z,0.90
2022-08-14T19:03:10.588Z,0.73
2022-08-14T19:08:17.586Z,0.81
2022-08-14T19:13:24.644Z,0.87
2022-08-14T19:18:31.063Z,0.90
2022-08-14T19:23:42.448Z,0.84
2022-08-14T19:28:43.436Z,0.81
2022-08-14T19:33:50.954Z,0.97
2022-08-14T19:38:57.257Z,0.80
2022-08-14T19:44:03.009Z,0.88
2022-08-14T19:49:09.490Z,0.76
2022-08-14T19:54:15.997Z,0.74
2022-08-14T19:59:22.782Z,0.92
2022-08-14T20:04:45.444Z,0.87
2022-08-14T20:11:04.791Z,0.79
2022-08-14T20:14:41.475Z,1.13
2022-08-14T20:19:47.705Z,0.99
2022-08-14T20:24:54.637Z,1.14
2022-08-14T20:30:28.275Z,0.99
2022-08-14T20:35:08.576Z,1.07
2022-08-14T20:40:23.280Z,1.22
2022-08-14T20:45:23.895Z,0.91
2022-08-14T20:50:29.386Z,1.31
2022-08-14T20:55:35.586Z,1.04
2022-08-14T21:00:52.078Z,1.01
2022-08-14T21:05:56.721Z,1.07
2022-08-14T21:10:56.883Z,1.11
2022-08-14T21:16:03.256Z,1.23
2022-08-14T21:21:09.567Z,1.10
2022-08-14T21:26:16.175Z,0.92
2022-08-14T21:31:22.474Z,1.01
2022-08-14T21:36:30.852Z,1.20
2022-08-14T21:41:42.752Z,1.15
2022-08-14T21:46:43.243Z,0.98
2022-08-14T21:51:55.001Z,1.26
2022-08-14T21:56:57.032Z,0.91
2022-08-14T22:02:03.819Z,1.17
2022-08-14T22:07:08.900Z,1.03
2022-08-14T22:12:47.258Z,1.19
2022-08-14T22:17:22.287Z,0.93
2022-08-14T22:22:29.279Z,0.85
2022-08-14T22:27:35.794Z,1.05
2022-08-14T22:32:57.441Z,1.22
2022-08-14T22:38:36.623Z,1.30
2022-08-14T22:42:59.957Z,1.39
2022-08-14T22:48:01.237Z,1.13
2022-08-14T22:53:08.016Z,1.09
2022-08-14T22:58:17.145Z,1.14
2022-08-14T23:03:21.269Z,0.90
2022-08-14T23:08:59.298Z,1.20
2022-08-14T23:13:33.508Z,0.94
2022-08-14T23:18:39.917Z,0.89
2022-08-14T23:23:47.462Z,1.27
2022-08-14T23:28:58.142Z,1.08
2022-08-14T23:34:00.346Z,0.94
2022-08-14T23:39:10.416Z,1.13
2022-08-14T23:44:14.362Z,0.87
2022-08-14T23:49:21.203Z,1.10
2022-08-14T23:54:48.975Z,0.94
2022-08-14T23:59:33.045Z,1.05
